Time;durP1;ratioP1;P1;durP2;ratioP2;P2;SDS_P1;SDS_P2;PMS_P1;PMS_P2;Temp;Humidity;BMP_temperature;BMP_pressure;BME280_temperature;BME280_humidity;BME280_pressure;Samples;Min_cycle;Max_cycle;Signal;HPM_P1;HPM_P2
2022/08/25 00:01:31;;;;;;;4.55;2.47;;;;;;;;;;6147018;28;20243;-68
2022/08/25 00:04:35;;;;;;;4.05;2.38;;;;;;;;;;6148617;28;20150;-68
2022/08/25 00:07:36;;;;;;;7.35;2.90;;;;;;;;;;6152311;28;20047;-67
2022/08/25 00:10:39;;;;;;;7.30;3.05;;;;;;;;;;6152313;28;20055;-67
2022/08/25 00:13:44;;;;;;;5.95;2.95;;;;;;;;;;6154378;28;20118;-67
2022/08/25 00:16:46;;;;;;;5.68;2.45;;;;;;;;;;6151596;28;20066;-67
2022/08/25 00:19:49;;;;;;;4.72;2.33;;;;;;;;;;6149142;28;20050;-67
2022/08/25 00:22:51;;;;;;;3.15;2.38;;;;;;;;;;6148792;28;20056;-69
2022/08/25 00:25:54;;;;;;;4.30;2.20;;;;;;;;;;6153342;28;20047;-66
2022/08/25 00:28:55;;;;;;;4.88;2.33;;;;;;;;;;6151781;28;20055;-67
2022/08/25 00:31:58;;;;;;;7.28;2.78;;;;;;;;;;6151455;28;20055;-66
2022/08/25 00:35:01;;;;;;;9.63;2.60;;;;;;;;;;6153393;28;20335;-66
2022/08/25 00:38:03;;;;;;;4.75;2.38;;;;;;;;;;6150547;28;20042;-67
2022/08/25 00:41:09;;;;;;;6.13;2.13;;;;;;;;;;6150263;28;20055;-68
2022/08/25 00:44:13;;;;;;;2.60;2.03;;;;;;;;;;6149150;28;20051;-67
2022/08/25 00:47:14;;;;;;;7.95;2.17;;;;;;;;;;6150718;28;20164;-67
2022/08/25 00:50:18;;;;;;;4.72;2.97;;;;;;;;;;6150108;28;20245;-67
2022/08/25 00:53:19;;;;;;;3.08;2.30;;;;;;;;;;6149941;28;20070;-67
2022/08/25 00:56:22;;;;;;;5.15;2.40;;;;;;;;;;6149944;28;20047;-67
2022/08/25 00:59:25;;;;;;;3.20;2.25;;;;;;;;;;6148868;28;20079;-68
2022/08/25 01:02:27;;;;;;;4.35;2.30;;;;;;;;;;6147126;28;20039;-67
2022/08/25 01:05:31;;;;;;;3.42;2.10;;;;;;;;;;6148147;28;20274;-68
2022/08/25 01:08:34;;;;;;;5.00;2.42;;;;;;;;;;6150114;28;20051;-70
2022/08/25 01:11:36;;;;;;;3.17;2.28;;;;;;;;;;6149847;28;20055;-69
2022/08/25 01:14:38;;;;;;;3.08;2.00;;;;;;;;;;6149360;28;20052;-67
2022/08/25 01:17:47;;;;;;;6.57;2.25;;;;;;;;;;6148502;28;20062;-66
2022/08/25 01:20:51;;;;;;;2.38;2.08;;;;;;;;;;6148513;28;20056;-66
2022/08/25 01:23:54;;;;;;;5.88;2.40;;;;;;;;;;6149804;28;20271;-67
2022/08/25 01:26:56;;;;;;;4.43;2.40;;;;;;;;;;6152964;28;20070;-67
2022/08/25 01:29:58;;;;;;;7.28;2.30;;;;;;;;;;6148271;28;20388;-67
2022/08/25 01:33:03;;;;;;;3.17;2.05;;;;;;;;;;6150378;28;20074;-71
2022/08/25 01:36:07;;;;;;;6.10;2.10;;;;;;;;;;6148392;28;20055;-66
2022/08/25 01:39:08;;;;;;;3.30;2.42;;;;;;;;;;6148903;28;20063;-67
2022/08/25 01:42:24;;;;;;;3.78;2.10;;;;;;;;;;6147482;28;20059;-67
2022/08/25 01:45:26;;;;;;;3.17;2.05;;;;;;;;;;6146004;28;20334;-70
2022/08/25 01:48:28;;;;;;;5.93;2.40;;;;;;;;;;6154509;28;20109;-68
2022/08/25 01:51:35;;;;;;;3.53;2.30;;;;;;;;;;6153816;28;20119;-67
2022/08/25 01:54:37;;;;;;;7.85;2.72;;;;;;;;;;6155581;28;20133;-67
2022/08/25 01:57:38;;;;;;;2.95;2.15;;;;;;;;;;6151232;28;20083;-67
2022/08/25 02:00:45;;;;;;;5.13;2.30;;;;;;;;;;6156692;28;20063;-68
2022/08/25 02:03:48;;;;;;;6.80;2.38;;;;;;;;;;6159062;28;20047;-67
2022/08/25 02:06:51;;;;;;;;;;;;;;;;;;6150558;28;20063;-66
2022/08/25 02:09:53;;;;;;;3.83;2.03;;;;;;;;;;6147728;28;19930;-67
2022/08/25 02:12:55;;;;;;;3.30;2.20;;;;;;;;;;6150685;28;20043;-67
2022/08/25 02:15:58;;;;;;;6.05;3.28;;;;;;;;;;6150362;28;20058;-67
2022/08/25 02:19:00;;;;;;;3.97;1.95;;;;;;;;;;6155085;28;20146;-68
2022/08/25 02:22:03;;;;;;;4.38;2.33;;;;;;;;;;6155097;28;20326;-67
2022/08/25 02:25:06;;;;;;;3.92;2.17;;;;;;;;;;6156843;28;20047;-66
2022/08/25 02:28:08;;;;;;;4.30;2.20;;;;;;;;;;6155503;28;20058;-67
2022/08/25 02:31:09;;;;;;;5.55;2.33;;;;;;;;;;6154572;28;20056;-67
2022/08/25 02:34:13;;;;;;;3.25;2.22;;;;;;;;;;6154116;28;20075;-66
2022/08/25 02:37:17;;;;;;;3.28;2.10;;;;;;;;;;6157988;28;20047;-67
2022/08/25 02:40:20;;;;;;;6.40;2.45;;;;;;;;;;6159838;28;20100;-66
2022/08/25 02:43:21;;;;;;;4.30;2.58;;;;;;;;;;6154699;28;20299;-67
2022/08/25 02:46:24;;;;;;;5.78;2.40;;;;;;;;;;6149994;28;20050;-67
2022/08/25 02:49:26;;;;;;;4.63;2.10;;;;;;;;;;6154057;28;20283;-69
2022/08/25 02:52:29;;;;;;;4.03;2.10;;;;;;;;;;6154899;28;20301;-67
2022/08/25 02:55:31;;;;;;;3.85;1.90;;;;;;;;;;6155031;28;20066;-67
2022/08/25 02:58:33;;;;;;;4.45;1.85;;;;;;;;;;6147254;28;20094;-68
2022/08/25 03:01:34;;;;;;;5.93;2.30;;;;;;;;;;6148846;28;20111;-66
2022/08/25 03:04:36;;;;;;;4.57;2.55;;;;;;;;;;6144895;28;20052;-67
2022/08/25 03:07:39;;;;;;;3.28;2.00;;;;;;;;;;6145853;28;20067;-67
2022/08/25 03:10:41;;;;;;;;;;;;;;;;;;6145456;28;20251;-70
2022/08/25 03:13:42;;;;;;;2.70;2.20;;;;;;;;;;6145985;28;19930;-67
2022/08/25 03:16:44;;;;;;;4.85;2.42;;;;;;;;;;6148698;28;20043;-68
2022/08/25 03:19:46;;;;;;;3.42;2.15;;;;;;;;;;6148997;28;20062;-67
2022/08/25 03:22:49;;;;;;;3.17;2.33;;;;;;;;;;6145781;28;20079;-67
2022/08/25 03:29:10;;;;;;;5.95;2.35;;;;;;;;;;6147808;28;20066;-70
2022/08/25 03:32:11;;;;;;;6.78;2.35;;;;;;;;;;6149602;28;20047;-66
2022/08/25 03:35:13;;;;;;;4.20;2.20;;;;;;;;;;6148284;28;20094;-66
2022/08/25 03:38:16;;;;;;;5.13;2.35;;;;;;;;;;6145580;28;20054;-66
2022/08/25 03:41:32;;;;;;;3.78;2.22;;;;;;;;;;6148321;28;20063;-67
2022/08/25 03:44:34;;;;;;;4.07;2.17;;;;;;;;;;6146760;28;20130;-67
2022/08/25 03:47:35;;;;;;;3.83;2.20;;;;;;;;;;6147652;28;20054;-67
2022/08/25 03:50:37;;;;;;;7.60;2.67;;;;;;;;;;6141009;28;20243;-68
2022/08/25 03:53:40;;;;;;;3.45;2.35;;;;;;;;;;6147450;28;20393;-68
2022/08/25 03:56:43;;;;;;;6.25;2.40;;;;;;;;;;6143890;28;20063;-67
2022/08/25 03:59:44;;;;;;;9.05;3.35;;;;;;;;;;6138909;28;20151;-67
2022/08/25 04:02:46;;;;;;;5.63;2.55;;;;;;;;;;6142583;28;20059;-67
2022/08/25 04:05:48;;;;;;;7.60;2.47;;;;;;;;;;6142643;28;20355;-66
2022/08/25 04:08:52;;;;;;;6.18;2.30;;;;;;;;;;6142062;28;21094;-66
2022/08/25 04:11:54;;;;;;;4.95;2.67;;;;;;;;;;6142634;28;20060;-67
2022/08/25 04:14:55;;;;;;;3.80;2.60;;;;;;;;;;6144074;28;20310;-67
2022/08/25 04:17:57;;;;;;;6.15;2.80;;;;;;;;;;6146637;28;20055;-67
2022/08/25 04:21:03;;;;;;;4.00;2.38;;;;;;;;;;6148795;28;20106;-70
2022/08/25 04:24:07;;;;;;;8.50;2.58;;;;;;;;;;6147354;28;20051;-69
2022/08/25 04:27:09;;;;;;;3.08;2.33;;;;;;;;;;6145804;28;20058;-66
2022/08/25 04:30:12;;;;;;;6.90;2.63;;;;;;;;;;6144959;28;20078;-67
2022/08/25 04:33:14;;;;;;;5.00;2.10;;;;;;;;;;6145423;28;20250;-67
2022/08/25 04:36:17;;;;;;;7.10;2.95;;;;;;;;;;6143955;28;20055;-66
2022/08/25 04:39:21;;;;;;;4.88;2.75;;;;;;;;;;6145205;28;20066;-71
2022/08/25 04:42:22;;;;;;;6.97;3.15;;;;;;;;;;6146585;28;20059;-68
2022/08/25 04:45:24;;;;;;;9.77;3.17;;;;;;;;;;6147102;28;20059;-67
2022/08/25 04:48:26;;;;;;;7.50;2.88;;;;;;;;;;6143525;28;20075;-66
2022/08/25 04:51:29;;;;;;;5.82;2.97;;;;;;;;;;6147372;28;20052;-67
2022/08/25 04:54:32;;;;;;;6.60;2.90;;;;;;;;;;6150431;28;20046;-66
2022/08/25 04:57:34;;;;;;;6.20;3.25;;;;;;;;;;6148526;28;20043;-67
2022/08/25 05:00:37;;;;;;;5.90;2.83;;;;;;;;;;6150214;28;20235;-71
2022/08/25 05:03:39;;;;;;;6.80;3.13;;;;;;;;;;6152877;28;20118;-66
2022/08/25 05:06:41;;;;;;;6.63;2.97;;;;;;;;;;6147855;28;20059;-70
2022/08/25 05:09:44;;;;;;;11.77;2.92;;;;;;;;;;6149327;28;20064;-66
2022/08/25 05:12:46;;;;;;;9.07;3.63;;;;;;;;;;6150419;28;20230;-68
2022/08/25 05:15:53;;;;;;;10.98;4.15;;;;;;;;;;6147492;28;20059;-66
2022/08/25 05:18:55;;;;;;;5.97;3.95;;;;;;;;;;6150398;28;20055;-70
2022/08/25 05:21:57;;;;;;;10.80;4.20;;;;;;;;;;6148698;28;20054;-67
2022/08/25 05:25:28;;;;;;;9.40;4.55;;;;;;;;;;6150423;28;20078;-67
2022/08/25 05:28:29;;;;;;;7.85;4.07;;;;;;;;;;6150203;28;20051;-66
2022/08/25 05:31:32;;;;;;;6.03;3.95;;;;;;;;;;6149572;28;20047;-67
2022/08/25 05:34:35;;;;;;;8.23;4.13;;;;;;;;;;6149853;28;20812;-66
2022/08/25 05:37:37;;;;;;;;;;;;;;;;;;6147759;28;20055;-67
2022/08/25 05:40:40;;;;;;;6.55;3.78;;;;;;;;;;6147650;28;20482;-69
2022/08/25 05:43:43;;;;;;;8.45;4.30;;;;;;;;;;6149749;28;20058;-67
2022/08/25 05:46:45;;;;;;;6.45;4.90;;;;;;;;;;6147487;28;20051;-67
2022/08/25 05:49:47;;;;;;;14.55;6.80;;;;;;;;;;6148203;28;20058;-67
2022/08/25 05:52:49;;;;;;;11.90;6.50;;;;;;;;;;6149916;28;20109;-66
2022/08/25 05:55:53;;;;;;;11.00;6.68;;;;;;;;;;6149142;28;20048;-67
2022/08/25 06:02:52;;;;;;;10.00;6.65;;;;;;;;;;6150404;28;20342;-69
2022/08/25 06:05:54;;;;;;;9.77;6.00;;;;;;;;;;6148928;28;20047;-67
2022/08/25 06:08:55;;;;;;;10.32;6.10;;;;;;;;;;6153341;28;20059;-66
2022/08/25 06:11:59;;;;;;;8.90;5.32;;;;;;;;;;6156717;28;20043;-67
2022/08/25 06:15:00;;;;;;;;;;;;;;;;;;6157265;28;20334;-67
2022/08/25 06:18:02;;;;;;;9.05;4.90;;;;;;;;;;6149134;28;19926;-67
2022/08/25 06:21:09;;;;;;;9.13;4.80;;;;;;;;;;6148050;28;20051;-67
2022/08/25 06:24:11;;;;;;;9.43;6.00;;;;;;;;;;6148601;28;20149;-67
2022/08/25 06:27:15;;;;;;;9.60;5.57;;;;;;;;;;6150443;28;20102;-67
2022/08/25 06:30:19;;;;;;;11.25;4.95;;;;;;;;;;6150567;28;20156;-67
2022/08/25 06:33:20;;;;;;;10.65;4.15;;;;;;;;;;6146285;28;20059;-69
2022/08/25 06:36:50;;;;;;;10.30;3.75;;;;;;;;;;6149627;28;20058;-67
2022/08/25 06:39:52;;;;;;;13.13;3.75;;;;;;;;;;6147286;28;20047;-68
2022/08/25 06:42:55;;;;;;;10.55;4.60;;;;;;;;;;6150948;28;20055;-66
2022/08/25 06:45:57;;;;;;;11.45;4.35;;;;;;;;;;6148674;28;20091;-67
2022/08/25 06:48:59;;;;;;;6.03;4.00;;;;;;;;;;6147987;28;20100;-67
2022/08/25 06:52:01;;;;;;;7.35;4.40;;;;;;;;;;6151598;28;20053;-68
2022/08/25 06:55:03;;;;;;;11.98;4.65;;;;;;;;;;6150153;28;20052;-67
2022/08/25 06:58:07;;;;;;;9.52;4.20;;;;;;;;;;6149659;28;20050;-68
2022/08/25 07:01:10;;;;;;;7.65;4.18;;;;;;;;;;6147737;28;20083;-67
2022/08/25 07:04:12;;;;;;;10.57;4.10;;;;;;;;;;6149296;28;20054;-67
2022/08/25 07:07:13;;;;;;;9.38;3.67;;;;;;;;;;6147095;28;20090;-67
2022/08/25 07:10:37;;;;;;;8.52;3.60;;;;;;;;;;6145539;28;20050;-67
2022/08/25 07:13:40;;;;;;;7.15;4.10;;;;;;;;;;6147437;28;20262;-67
2022/08/25 07:16:43;;;;;;;5.32;3.30;;;;;;;;;;6147305;28;20046;-67
2022/08/25 07:19:45;;;;;;;7.15;3.50;;;;;;;;;;6147300;28;20055;-67
2022/08/25 07:22:48;;;;;;;4.72;3.17;;;;;;;;;;6146757;28;20292;-67
2022/08/25 07:25:50;;;;;;;5.95;3.00;;;;;;;;;;6143562;28;20052;-67
2022/08/25 07:28:53;;;;;;;11.57;3.47;;;;;;;;;;6146239;28;20119;-67
2022/08/25 07:31:55;;;;;;;8.23;3.53;;;;;;;;;;6149619;28;20043;-69
2022/08/25 07:35:15;;;;;;;14.05;4.25;;;;;;;;;;6145607;28;20051;-67
2022/08/25 07:38:17;;;;;;;6.00;3.55;;;;;;;;;;6146900;28;20071;-67
2022/08/25 07:41:19;;;;;;;8.70;3.63;;;;;;;;;;6146992;28;20241;-67
2022/08/25 07:44:56;;;;;;;6.07;3.10;;;;;;;;;;6146804;28;20070;-68
2022/08/25 07:47:59;;;;;;;8.27;3.30;;;;;;;;;;6147456;28;20061;-67
2022/08/25 07:51:07;;;;;;;9.50;2.72;;;;;;;;;;6144956;28;20051;-68
2022/08/25 07:54:09;;;;;;;8.93;3.30;;;;;;;;;;6145480;28;20044;-68
2022/08/25 07:57:11;;;;;;;7.60;2.73;;;;;;;;;;6145609;28;20057;-67
2022/08/25 08:00:16;;;;;;;10.00;3.27;;;;;;;;;;6148223;28;20350;-67
2022/08/25 08:03:17;;;;;;;5.63;2.67;;;;;;;;;;6147939;28;20379;-68
2022/08/25 08:06:21;;;;;;;6.60;2.93;;;;;;;;;;6145631;28;20062;-67
2022/08/25 08:09:22;;;;;;;8.05;2.80;;;;;;;;;;6145792;28;20490;-68
2022/08/25 08:12:25;;;;;;;7.00;2.67;;;;;;;;;;6145884;28;20247;-67
2022/08/25 08:15:29;;;;;;;5.13;2.10;;;;;;;;;;6145251;28;20558;-67
2022/08/25 08:18:59;;;;;;;4.38;2.13;;;;;;;;;;6147275;28;20055;-67
2022/08/25 08:22:02;;;;;;;3.85;2.00;;;;;;;;;;6148771;28;20054;-67
2022/08/25 08:25:04;;;;;;;5.60;2.67;;;;;;;;;;6146615;28;20054;-67
2022/08/25 08:28:06;;;;;;;4.60;2.53;;;;;;;;;;6150101;28;20052;-68
2022/08/25 08:31:09;;;;;;;4.15;2.80;;;;;;;;;;6150208;28;20074;-71
2022/08/25 08:34:12;;;;;;;6.40;2.53;;;;;;;;;;6152524;28;20054;-68
2022/08/25 08:37:14;;;;;;;6.43;2.40;;;;;;;;;;6152000;28;20126;-68
2022/08/25 08:40:16;;;;;;;;;;;;;;;;;;6150123;28;20059;-68
2022/08/25 08:43:19;;;;;;;5.75;2.10;;;;;;;;;;6152843;28;19934;-70
2022/08/25 08:46:23;;;;;;;3.97;2.05;;;;;;;;;;6150811;28;20055;-70
2022/08/25 08:49:30;;;;;;;3.20;2.30;;;;;;;;;;6149831;28;20062;-67
2022/08/25 08:56:30;;;;;;;7.43;2.30;;;;;;;;;;6148941;28;20054;-68
2022/08/25 08:59:41;;;;;;;5.13;2.28;;;;;;;;;;6149301;28;20381;-68
2022/08/25 09:02:49;;;;;;;5.53;2.60;;;;;;;;;;6150331;28;20088;-68
2022/08/25 09:05:53;;;;;;;5.60;2.10;;;;;;;;;;6150347;28;20250;-67
2022/08/25 09:08:55;;;;;;;4.07;1.75;;;;;;;;;;6148499;28;20066;-69
2022/08/25 09:12:08;;;;;;;3.90;2.00;;;;;;;;;;6147712;28;20122;-67
2022/08/25 09:15:13;;;;;;;11.68;3.10;;;;;;;;;;6150137;28;20060;-68
2022/08/25 09:18:23;;;;;;;6.10;2.50;;;;;;;;;;6150871;28;20211;-68
2022/08/25 09:21:30;;;;;;;7.07;2.17;;;;;;;;;;6149333;28;20051;-68
2022/08/25 09:24:42;;;;;;;8.93;2.42;;;;;;;;;;6152203;28;20066;-71
2022/08/25 09:27:52;;;;;;;3.60;2.10;;;;;;;;;;6151976;28;20059;-70
2022/08/25 09:30:58;;;;;;;6.80;2.83;;;;;;;;;;6152323;28;20047;-68
2022/08/25 09:34:03;;;;;;;6.35;2.63;;;;;;;;;;6147396;28;20059;-68
2022/08/25 09:37:05;;;;;;;8.13;2.00;;;;;;;;;;6148847;28;20059;-68
2022/08/25 09:40:08;;;;;;;3.30;2.17;;;;;;;;;;6148496;28;20169;-67
2022/08/25 09:43:20;;;;;;;4.53;1.90;;;;;;;;;;6148451;28;20076;-68
2022/08/25 09:46:24;;;;;;;3.35;2.10;;;;;;;;;;6147732;28;20039;-68
2022/08/25 09:49:36;;;;;;;6.30;2.10;;;;;;;;;;6150502;28;20050;-69
2022/08/25 09:52:39;;;;;;;5.00;2.20;;;;;;;;;;6151083;28;20050;-68
2022/08/25 09:55:43;;;;;;;4.47;1.80;;;;;;;;;;6149972;28;20175;-68
2022/08/25 09:58:44;;;;;;;2.83;1.98;;;;;;;;;;6148202;28;20043;-69
2022/08/25 10:02:20;;;;;;;3.45;2.10;;;;;;;;;;6149606;28;20059;-68
2022/08/25 10:05:25;;;;;;;4.63;1.90;;;;;;;;;;6148750;28;20062;-69
2022/08/25 10:08:32;;;;;;;6.07;2.03;;;;;;;;;;6149417;28;20082;-69
2022/08/25 10:11:38;;;;;;;2.85;1.77;;;;;;;;;;6147307;28;20047;-68
2022/08/25 10:14:39;;;;;;;2.95;1.52;;;;;;;;;;6147600;28;20431;-69
2022/08/25 10:17:41;;;;;;;2.78;1.60;;;;;;;;;;6149285;28;20086;-68
2022/08/25 10:20:53;;;;;;;4.13;1.67;;;;;;;;;;6149534;28;20222;-69
2022/08/25 10:23:55;;;;;;;3.70;1.65;;;;;;;;;;6155247;28;20330;-69
2022/08/25 10:27:01;;;;;;;2.75;1.52;;;;;;;;;;6154401;28;20057;-68
2022/08/25 10:30:08;;;;;;;4.50;1.67;;;;;;;;;;6157360;28;20062;-68
2022/08/25 10:33:15;;;;;;;5.45;1.73;;;;;;;;;;6149562;28;20047;-69
2022/08/25 10:36:44;;;;;;;1.95;1.70;;;;;;;;;;6143939;28;20436;-68
2022/08/25 10:39:50;;;;;;;3.47;1.70;;;;;;;;;;6146943;28;20121;-69
2022/08/25 10:43:05;;;;;;;2.90;1.60;;;;;;;;;;6146927;28;20048;-69
2022/08/25 10:46:24;;;;;;;4.13;2.05;;;;;;;;;;6147951;28;20255;-68
2022/08/25 10:49:32;;;;;;;4.15;1.70;;;;;;;;;;6147639;28;20330;-69
2022/08/25 10:52:39;;;;;;;4.13;1.70;;;;;;;;;;6150193;28;20051;-72
2022/08/25 10:55:49;;;;;;;5.20;1.77;;;;;;;;;;6149237;28;20066;-70
2022/08/25 10:59:03;;;;;;;4.70;2.00;;;;;;;;;;6146071;28;20052;-70
2022/08/25 11:02:16;;;;;;;2.72;2.00;;;;;;;;;;6147136;28;20106;-68
2022/08/25 11:05:25;;;;;;;1.88;1.67;;;;;;;;;;6149102;28;20074;-73
2022/08/25 11:08:33;;;;;;;3.58;1.60;;;;;;;;;;6148043;28;20047;-72
2022/08/25 11:11:39;;;;;;;3.03;1.80;;;;;;;;;;6148997;28;20117;-68
2022/08/25 11:14:46;;;;;;;3.10;1.80;;;;;;;;;;6146294;28;20242;-68
2022/08/25 11:17:51;;;;;;;3.63;1.88;;;;;;;;;;6144587;28;20059;-69
2022/08/25 11:21:00;;;;;;;4.10;1.90;;;;;;;;;;6144975;28;20051;-69
2022/08/25 11:24:08;;;;;;;2.97;1.80;;;;;;;;;;6146914;28;20058;-70
2022/08/25 11:27:15;;;;;;;2.95;1.85;;;;;;;;;;6147407;28;20075;-70
2022/08/25 11:30:19;;;;;;;1.77;1.60;;;;;;;;;;6147097;28;20098;-70
2022/08/25 11:33:24;;;;;;;3.25;2.05;;;;;;;;;;6145966;28;20056;-69
2022/08/25 11:36:29;;;;;;;5.22;2.22;;;;;;;;;;6149035;28;20338;-68
2022/08/25 11:39:55;;;;;;;2.75;1.88;;;;;;;;;;6146317;28;20063;-69
2022/08/25 11:43:02;;;;;;;3.33;1.70;;;;;;;;;;6147555;28;20055;-69
2022/08/25 11:46:18;;;;;;;4.07;1.80;;;;;;;;;;6147644;28;20047;-69
2022/08/25 11:49:46;;;;;;;2.22;1.75;;;;;;;;;;6145737;28;20339;-69
2022/08/25 11:52:52;;;;;;;2.00;1.80;;;;;;;;;;6149318;28;20050;-69
2022/08/25 11:56:01;;;;;;;4.05;2.00;;;;;;;;;;6145892;28;20124;-69
2022/08/25 11:59:03;;;;;;;4.97;2.00;;;;;;;;;;6145431;28;20067;-70
2022/08/25 12:02:05;;;;;;;3.78;2.03;;;;;;;;;;6148056;28;20058;-69
2022/08/25 12:05:09;;;;;;;2.35;1.95;;;;;;;;;;6150857;28;20075;-71
2022/08/25 12:11:50;;;;;;;3.38;1.80;;;;;;;;;;6150327;28;20047;-72
2022/08/25 12:14:52;;;;;;;3.88;1.75;;;;;;;;;;6148673;28;20080;-68
2022/08/25 12:18:09;;;;;;;2.25;1.98;;;;;;;;;;6149203;28;20059;-69
2022/08/25 12:21:16;;;;;;;2.53;1.75;;;;;;;;;;6149009;28;20067;-69
2022/08/25 12:24:21;;;;;;;2.17;1.98;;;;;;;;;;6150726;28;20235;-69
2022/08/25 12:27:28;;;;;;;2.58;2.08;;;;;;;;;;6152927;28;20059;-70
2022/08/25 12:30:33;;;;;;;2.55;1.83;;;;;;;;;;6155059;28;20060;-70
2022/08/25 12:33:43;;;;;;;2.53;1.85;;;;;;;;;;6148345;28;20051;-70
2022/08/25 12:36:57;;;;;;;2.58;2.03;;;;;;;;;;6150822;28;20043;-68
2022/08/25 12:40:01;;;;;;;6.85;2.20;;;;;;;;;;6151036;28;20047;-69
2022/08/25 12:43:08;;;;;;;4.57;2.00;;;;;;;;;;6149111;28;20150;-69
2022/08/25 12:46:32;;;;;;;4.30;1.73;;;;;;;;;;6151347;28;20055;-73
2022/08/25 12:49:34;;;;;;;2.50;2.30;;;;;;;;;;6153274;28;20059;-69
2022/08/25 12:52:37;;;;;;;2.25;1.90;;;;;;;;;;6153414;28;20322;-70
2022/08/25 12:55:44;;;;;;;2.67;2.10;;;;;;;;;;6147784;28;20055;-71
2022/08/25 12:58:56;;;;;;;2.92;1.90;;;;;;;;;;6144924;28;20343;-69
2022/08/25 13:02:01;;;;;;;;;;;;;;;;;;6100617;29;20044;-69
2022/08/25 13:05:12;;;;;;;3.90;1.90;;;;;;;;;;6102177;29;20547;-71
2022/08/25 13:08:36;;;;;;;2.97;1.98;;;;;;;;;;6100638;28;20060;-69
2022/08/25 13:11:41;;;;;;;2.00;1.80;;;;;;;;;;6103650;28;20078;-69
2022/08/25 13:14:46;;;;;;;2.20;2.00;;;;;;;;;;6102551;29;20050;-68
2022/08/25 13:17:48;;;;;;;2.22;2.03;;;;;;;;;;6106864;29;20052;-69
2022/08/25 13:20:51;;;;;;;3.92;1.60;;;;;;;;;;6102271;29;20361;-69
2022/08/25 13:23:54;;;;;;;2.00;1.80;;;;;;;;;;6103195;29;20173;-69
2022/08/25 13:26:59;;;;;;;3.95;2.00;;;;;;;;;;6104853;29;20048;-66
2022/08/25 13:30:04;;;;;;;2.92;2.10;;;;;;;;;;6103767;29;20331;-68
2022/08/25 13:33:17;;;;;;;3.80;1.95;;;;;;;;;;6103521;29;20127;-69
2022/08/25 13:39:39;;;;;;;5.90;2.20;;;;;;;;;;6103439;29;20056;-68
2022/08/25 13:42:42;;;;;;;2.83;1.80;;;;;;;;;;6102617;28;20063;-69
2022/08/25 13:45:47;;;;;;;3.38;1.90;;;;;;;;;;6103344;29;20170;-68
2022/08/25 13:48:50;;;;;;;3.78;2.20;;;;;;;;;;6101972;29;20284;-68
2022/08/25 13:51:53;;;;;;;2.42;1.92;;;;;;;;;;6101938;28;20063;-68
2022/08/25 13:54:58;;;;;;;2.53;1.75;;;;;;;;;;6103291;29;20063;-69
2022/08/25 13:58:01;;;;;;;3.60;2.10;;;;;;;;;;6101720;29;20343;-69
2022/08/25 14:01:08;;;;;;;2.28;2.08;;;;;;;;;;6135639;28;20111;-67
2022/08/25 14:04:30;;;;;;;2.22;2.00;;;;;;;;;;6146903;28;20051;-68
2022/08/25 14:07:32;;;;;;;1.80;1.70;;;;;;;;;;6150914;28;21345;-68
2022/08/25 14:10:38;;;;;;;2.20;1.70;;;;;;;;;;6147130;28;20048;-67
2022/08/25 14:13:41;;;;;;;6.45;1.88;;;;;;;;;;6146946;28;20114;-67
2022/08/25 14:16:50;;;;;;;3.28;1.88;;;;;;;;;;6149996;28;20055;-70
2022/08/25 14:19:52;;;;;;;2.53;1.80;;;;;;;;;;6133647;28;20052;-69
2022/08/25 14:22:56;;;;;;;1.70;1.45;;;;;;;;;;6146538;28;20070;-67
2022/08/25 14:25:58;;;;;;;4.53;2.05;;;;;;;;;;6150295;28;20055;-71
2022/08/25 14:28:59;;;;;;;4.82;1.83;;;;;;;;;;6148547;28;20060;-67
2022/08/25 14:32:03;;;;;;;4.88;2.30;;;;;;;;;;6151272;28;20063;-66
2022/08/25 14:35:05;;;;;;;4.43;1.90;;;;;;;;;;6147556;28;20059;-69
2022/08/25 14:38:10;;;;;;;2.33;1.90;;;;;;;;;;6151711;28;20054;-69
2022/08/25 14:41:12;;;;;;;4.45;1.73;;;;;;;;;;6151857;28;20055;-69
2022/08/25 14:44:14;;;;;;;2.65;1.77;;;;;;;;;;6151948;28;20349;-69
2022/08/25 14:47:18;;;;;;;2.10;1.90;;;;;;;;;;6150813;28;20055;-70
2022/08/25 14:50:20;;;;;;;4.05;2.28;;;;;;;;;;6145828;28;20051;-69
2022/08/25 14:53:22;;;;;;;2.97;1.92;;;;;;;;;;6150349;28;20330;-68
2022/08/25 14:56:23;;;;;;;2.08;1.90;;;;;;;;;;6146776;28;20047;-69
2022/08/25 14:59:26;;;;;;;2.53;1.70;;;;;;;;;;6148228;28;20063;-68
2022/08/25 15:02:30;;;;;;;2.58;1.80;;;;;;;;;;6146889;28;20086;-68
2022/08/25 15:05:32;;;;;;;5.18;2.08;;;;;;;;;;6148156;28;20059;-67
2022/08/25 15:11:55;;;;;;;2.45;2.20;;;;;;;;;;6149383;28;20044;-73
2022/08/25 15:14:57;;;;;;;2.00;1.80;;;;;;;;;;6145971;28;20058;-67
2022/08/25 15:18:00;;;;;;;3.30;1.80;;;;;;;;;;6147550;28;20082;-69
2022/08/25 15:21:02;;;;;;;2.45;1.70;;;;;;;;;;6147843;28;20058;-68
2022/08/25 15:24:05;;;;;;;2.13;1.90;;;;;;;;;;6149838;28;20070;-67
2022/08/25 15:27:07;;;;;;;3.33;1.90;;;;;;;;;;6148696;28;20238;-68
2022/08/25 15:30:11;;;;;;;1.85;1.70;;;;;;;;;;6147967;28;20057;-68
2022/08/25 15:33:14;;;;;;;2.05;1.85;;;;;;;;;;6151606;28;20055;-68
2022/08/25 15:36:17;;;;;;;2.08;1.65;;;;;;;;;;6142796;28;20055;-69
2022/08/25 15:39:19;;;;;;;2.75;1.70;;;;;;;;;;6148206;28;20066;-67
2022/08/25 15:42:20;;;;;;;4.43;1.92;;;;;;;;;;6146475;28;20061;-70
2022/08/25 15:45:22;;;;;;;4.38;2.08;;;;;;;;;;6145004;28;20066;-70
2022/08/25 15:48:25;;;;;;;4.65;1.90;;;;;;;;;;6147643;28;20059;-67
2022/08/25 15:51:28;;;;;;;2.08;1.83;;;;;;;;;;6146701;28;20062;-68
2022/08/25 15:54:30;;;;;;;5.30;2.05;;;;;;;;;;6152030;28;20054;-68
2022/08/25 15:57:32;;;;;;;2.45;1.95;;;;;;;;;;6145423;28;20051;-68
2022/08/25 16:00:34;;;;;;;2.63;1.85;;;;;;;;;;6147375;28;20062;-68
2022/08/25 16:03:37;;;;;;;3.25;2.05;;;;;;;;;;6144939;28;20219;-70
2022/08/25 16:06:39;;;;;;;4.35;2.03;;;;;;;;;;6149216;28;20323;-70
2022/08/25 16:09:41;;;;;;;2.85;2.00;;;;;;;;;;6147680;28;20291;-69
2022/08/25 16:12:42;;;;;;;2.10;1.90;;;;;;;;;;6147760;28;20047;-69
2022/08/25 16:15:47;;;;;;;3.95;1.85;;;;;;;;;;6146192;28;20051;-69
2022/08/25 16:18:50;;;;;;;3.10;1.80;;;;;;;;;;6147809;28;20345;-69
2022/08/25 16:21:52;;;;;;;2.53;2.00;;;;;;;;;;6146117;28;20055;-69
2022/08/25 16:24:54;;;;;;;;;;;;;;;;;;6147185;28;20058;-68
2022/08/25 16:27:55;;;;;;;2.95;1.98;;;;;;;;;;6147817;28;19918;-69
2022/08/25 16:30:57;;;;;;;;;;;;;;;;;;6147967;28;20242;-68
2022/08/25 16:34:01;;;;;;;2.87;1.73;;;;;;;;;;6146106;28;19918;-68
2022/08/25 16:37:03;;;;;;;2.58;1.70;;;;;;;;;;6145688;28;20527;-67
2022/08/25 16:40:05;;;;;;;;;;;;;;;;;;6145951;28;20968;-68
2022/08/25 16:43:07;;;;;;;4.63;1.90;;;;;;;;;;6145224;28;19961;-69
2022/08/25 16:46:11;;;;;;;2.08;1.88;;;;;;;;;;6150040;28;20242;-68
2022/08/25 16:49:15;;;;;;;2.95;1.77;;;;;;;;;;6150540;28;20055;-68
2022/08/25 16:55:35;;;;;;;2.33;1.80;;;;;;;;;;6151851;28;20047;-68
2022/08/25 16:58:38;;;;;;;3.17;1.80;;;;;;;;;;6152417;28;20055;-67
2022/08/25 17:01:40;;;;;;;2.50;1.80;;;;;;;;;;6149924;28;20132;-68
2022/08/25 17:04:43;;;;;;;2.17;1.90;;;;;;;;;;6149063;28;20063;-68
2022/08/25 17:08:27;;;;;;;2.00;1.77;;;;;;;;;;6147782;28;20257;-72
2022/08/25 17:11:09;;;;;;;5.63;1.83;;;;;;;;;;6152733;28;20078;-67
2022/08/25 17:14:11;;;;;;;3.03;1.75;;;;;;;;;;6151365;28;20335;-68
2022/08/25 17:17:13;;;;;;;6.38;1.88;;;;;;;;;;6151943;28;20414;-67
2022/08/25 17:20:16;;;;;;;1.88;1.63;;;;;;;;;;6153151;28;20051;-68
2022/08/25 17:23:17;;;;;;;7.72;1.60;;;;;;;;;;6151860;28;20122;-69
2022/08/25 17:26:19;;;;;;;3.30;1.85;;;;;;;;;;6150455;28;20102;-67
2022/08/25 17:29:21;;;;;;;2.00;1.63;;;;;;;;;;6147392;28;20051;-69
2022/08/25 17:32:23;;;;;;;1.87;1.60;;;;;;;;;;6151629;28;20051;-69
2022/08/25 17:35:26;;;;;;;6.30;2.27;;;;;;;;;;6150529;28;20468;-68
2022/08/25 17:38:29;;;;;;;3.03;1.80;;;;;;;;;;6146974;28;20631;-68
2022/08/25 17:41:30;;;;;;;3.95;1.88;;;;;;;;;;6147738;28;20058;-69
2022/08/25 17:44:32;;;;;;;4.80;2.10;;;;;;;;;;6148494;28;20047;-69
2022/08/25 17:47:33;;;;;;;5.30;1.80;;;;;;;;;;6148823;28;20110;-68
2022/08/25 17:50:37;;;;;;;2.53;1.90;;;;;;;;;;6147205;28;20095;-69
2022/08/25 17:53:39;;;;;;;2.10;1.90;;;;;;;;;;6153708;28;20055;-70
2022/08/25 17:56:41;;;;;;;4.70;2.00;;;;;;;;;;6146829;28;20054;-68
2022/08/25 17:59:42;;;;;;;6.20;2.23;;;;;;;;;;6147876;28;20055;-70
2022/08/25 18:02:44;;;;;;;7.93;1.85;;;;;;;;;;6150294;28;20059;-68
2022/08/25 18:05:47;;;;;;;4.40;1.83;;;;;;;;;;6149497;28;20058;-68
2022/08/25 18:08:50;;;;;;;4.45;1.90;;;;;;;;;;6149595;28;20062;-69
2022/08/25 18:11:52;;;;;;;3.33;1.88;;;;;;;;;;6147334;28;20330;-68
2022/08/25 18:14:53;;;;;;;4.25;1.90;;;;;;;;;;6149260;28;20553;-72
2022/08/25 18:17:55;;;;;;;2.95;1.75;;;;;;;;;;6149854;28;20063;-71
2022/08/25 18:20:58;;;;;;;6.82;2.10;;;;;;;;;;6146672;28;20094;-68
2022/08/25 18:24:01;;;;;;;5.85;1.88;;;;;;;;;;6148510;28;20047;-68
2022/08/25 18:27:03;;;;;;;;;;;;;;;;;;6150182;28;20094;-66
2022/08/25 18:30:06;;;;;;;2.33;1.70;;;;;;;;;;6149610;28;20220;-67
2022/08/25 18:33:08;;;;;;;4.15;2.53;;;;;;;;;;6151749;28;20341;-67
2022/08/25 18:36:12;;;;;;;4.38;2.08;;;;;;;;;;6146318;28;20057;-68
2022/08/25 18:42:48;;;;;;;3.13;2.08;;;;;;;;;;6057127;29;20322;-68
2022/08/25 18:45:50;;;;;;;3.40;2.10;;;;;;;;;;6058319;29;20367;-67
2022/08/25 18:48:51;;;;;;;2.72;2.20;;;;;;;;;;6056050;29;20111;-69
2022/08/25 18:51:54;;;;;;;4.97;2.47;;;;;;;;;;6058559;29;20045;-67
2022/08/25 18:54:56;;;;;;;5.30;2.55;;;;;;;;;;6058697;29;20056;-67
2022/08/25 18:57:59;;;;;;;5.25;2.63;;;;;;;;;;6058123;29;20067;-68